sensor_id;sensor_type;location;lat;lon;timestamp;pressure;altitude;pressure_sealevel;temperature;humidity
44127;BME280;29786;50.798;7.302;2023-04-20T00:04:30;99530;;;6.11;57.4
44127;BME280;29786;50.798;7.302;2023-04-20T00:09:27;99520;;;6.02;56.08
44127;BME280;29786;50.798;7.302;2023-04-20T00:15:37;99510;;;6.35;55.54
44127;BME280;29786;50.798;7.302;2023-04-20T00:20:34;99510;;;6.39;56.08
44127;BME280;29786;50.798;7.302;2023-04-20T00:25:30;99490;;;6.52;56.96
44127;BME280;29786;50.798;7.302;2023-04-20T00:30:27;99480;;;6.74;53.63
44127;BME280;29786;50.798;7.302;2023-04-20T00:36:37;99470;;;7.05;53.98
44127;BME280;29786;50.798;7.302;2023-04-20T00:41:34;99450;;;7.16;54.96
44127;BME280;29786;50.798;7.302;2023-04-20T00:46:31;99450;;;7.06;54.04
44127;BME280;29786;50.798;7.302;2023-04-20T00:51:27;99440;;;7.06;53.46
44127;BME280;29786;50.798;7.302;2023-04-20T00:57:38;99440;;;6.99;55.23
44127;BME280;29786;50.798;7.302;2023-04-20T01:02:34;99430;;;6.99;56.37
44127;BME280;29786;50.798;7.302;2023-04-20T01:07:31;99430;;;6.99;56.08
44127;BME280;29786;50.798;7.302;2023-04-20T01:12:27;99430;;;7.16;56.67
44127;BME280;29786;50.798;7.302;2023-04-20T01:18:42;99420;;;7.13;57.05
44127;BME280;29786;50.798;7.302;2023-04-20T01:23:35;99420;;;7.21;56.24
44127;BME280;29786;50.798;7.302;2023-04-20T01:28:31;99400;;;7.04;56.89
44127;BME280;29786;50.798;7.302;2023-04-20T01:33:28;99410;;;7.08;56.74
44127;BME280;29786;50.798;7.302;2023-04-20T01:38:24;99410;;;7.19;57.55
44127;BME280;29786;50.798;7.302;2023-04-20T01:44:35;99400;;;7.27;58.22
44127;BME280;29786;50.798;7.302;2023-04-20T01:49:31;99370;;;6.83;58.87
44127;BME280;29786;50.798;7.302;2023-04-20T01:54:28;99380;;;6.93;59.94
44127;BME280;29786;50.798;7.302;2023-04-20T02:00:39;99370;;;7.38;59.87
44127;BME280;29786;50.798;7.302;2023-04-20T02:05:35;99370;;;7;61.18
44127;BME280;29786;50.798;7.302;2023-04-20T02:10:32;99370;;;7.12;62.02
44127;BME280;29786;50.798;7.302;2023-04-20T02:15:28;99370;;;7.03;63.34
44127;BME280;29786;50.798;7.302;2023-04-20T02:26:35;99350;;;6.75;66.2
44127;BME280;29786;50.798;7.302;2023-04-20T02:31:32;99340;;;6.87;65.98
44127;BME280;29786;50.798;7.302;2023-04-20T02:36:28;99330;;;6.84;66.43
44127;BME280;29786;50.798;7.302;2023-04-20T02:41:25;99330;;;7.03;65.54
44127;BME280;29786;50.798;7.302;2023-04-20T02:47:36;99330;;;6.8;67.82
44127;BME280;29786;50.798;7.302;2023-04-20T02:52:32;99320;;;6.77;68.03
44127;BME280;29786;50.798;7.302;2023-04-20T02:57:29;99310;;;6.95;69.2
44127;BME280;29786;50.798;7.302;2023-04-20T03:02:25;99310;;;7.11;68.18
44127;BME280;29786;50.798;7.302;2023-04-20T03:08:36;99310;;;7.08;67.34
44127;BME280;29786;50.798;7.302;2023-04-20T03:13:32;99300;;;7.38;64.5
44127;BME280;29786;50.798;7.302;2023-04-20T03:18:29;99300;;;7.23;66
44127;BME280;29786;50.798;7.302;2023-04-20T03:23:25;99300;;;7.29;64.55
44127;BME280;29786;50.798;7.302;2023-04-20T03:29:36;99290;;;6.88;65.75
44127;BME280;29786;50.798;7.302;2023-04-20T03:34:33;99290;;;6.83;67.65
44127;BME280;29786;50.798;7.302;2023-04-20T03:39:29;99300;;;6.96;67.71
44127;BME280;29786;50.798;7.302;2023-04-20T03:44:26;99300;;;6.92;67.63
44127;BME280;29786;50.798;7.302;2023-04-20T03:50:36;99290;;;6.95;69.56
44127;BME280;29786;50.798;7.302;2023-04-20T03:55:33;99290;;;6.59;75.54
44127;BME280;29786;50.798;7.302;2023-04-20T04:00:30;99290;;;6.31;81.04
44127;BME280;29786;50.798;7.302;2023-04-20T04:11:37;99290;;;6.6;80.58
44127;BME280;29786;50.798;7.302;2023-04-20T04:16:33;99280;;;6.62;81.77
44127;BME280;29786;50.798;7.302;2023-04-20T04:21:30;99270;;;6.78;80.55
44127;BME280;29786;50.798;7.302;2023-04-20T04:26:26;99270;;;6.76;81.4
44127;BME280;29786;50.798;7.302;2023-04-20T04:32:37;99270;;;6.69;79.92
44127;BME280;29786;50.798;7.302;2023-04-20T04:37:33;99270;;;7.03;76.26
44127;BME280;29786;50.798;7.302;2023-04-20T04:42:30;99270;;;6.96;77.4
44127;BME280;29786;50.798;7.302;2023-04-20T04:47:27;99260;;;6.56;79.58
44127;BME280;29786;50.798;7.302;2023-04-20T04:53:37;99260;;;6.77;85.63
44127;BME280;29786;50.798;7.302;2023-04-20T04:58:34;99260;;;6.45;93.04
44127;BME280;29786;50.798;7.302;2023-04-20T05:03:30;99250;;;6.45;93.02
44127;BME280;29786;50.798;7.302;2023-04-20T05:08:27;99260;;;6.25;97.05
44127;BME280;29786;50.798;7.302;2023-04-20T05:14:38;99250;;;6.63;94.71
44127;BME280;29786;50.798;7.302;2023-04-20T05:19:34;99260;;;6.69;97.88
44127;BME280;29786;50.798;7.302;2023-04-20T05:24:31;99250;;;6.56;100
44127;BME280;29786;50.798;7.302;2023-04-20T05:29:27;99260;;;6.7;100
44127;BME280;29786;50.798;7.302;2023-04-20T05:35:38;99260;;;6.74;100
44127;BME280;29786;50.798;7.302;2023-04-20T05:40:34;99260;;;6.73;100
44127;BME280;29786;50.798;7.302;2023-04-20T05:45:31;99270;;;6.39;100
44127;BME280;29786;50.798;7.302;2023-04-20T05:50:27;99260;;;6.32;100
44127;BME280;29786;50.798;7.302;2023-04-20T05:56:38;99250;;;6.73;100
44127;BME280;29786;50.798;7.302;2023-04-20T06:01:35;99260;;;6.5;100
44127;BME280;29786;50.798;7.302;2023-04-20T06:06:31;99240;;;6.53;100
44127;BME280;29786;50.798;7.302;2023-04-20T06:16:24;99260;;;7.18;100
44127;BME280;29786;50.798;7.302;2023-04-20T06:22:35;99260;;;7.27;100
44127;BME280;29786;50.798;7.302;2023-04-20T06:27:31;99240;;;6.87;100
44127;BME280;29786;50.798;7.302;2023-04-20T06:32:28;99260;;;6.85;100
44127;BME280;29786;50.798;7.302;2023-04-20T06:38:39;99260;;;6.81;100
44127;BME280;29786;50.798;7.302;2023-04-20T06:43:35;99250;;;6.75;100
44127;BME280;29786;50.798;7.302;2023-04-20T06:48:32;99240;;;6.86;100
44127;BME280;29786;50.798;7.302;2023-04-20T06:53:28;99250;;;6.77;100
44127;BME280;29786;50.798;7.302;2023-04-20T06:58:25;99240;;;6.8;100
44127;BME280;29786;50.798;7.302;2023-04-20T07:04:36;99240;;;6.72;100
44127;BME280;29786;50.798;7.302;2023-04-20T07:09:32;99240;;;7.04;100
44127;BME280;29786;50.798;7.302;2023-04-20T07:14:29;99230;;;7.46;100
44127;BME280;29786;50.798;7.302;2023-04-20T07:19:25;99230;;;7.61;100
44127;BME280;29786;50.798;7.302;2023-04-20T07:25:36;99230;;;7.64;100
44127;BME280;29786;50.798;7.302;2023-04-20T07:30:32;99230;;;7.86;100
44127;BME280;29786;50.798;7.302;2023-04-20T07:35:29;99230;;;8.06;100
44127;BME280;29786;50.798;7.302;2023-04-20T07:40:25;99230;;;7.88;100
44127;BME280;29786;50.798;7.302;2023-04-20T07:46:36;99240;;;8.59;100
44127;BME280;29786;50.798;7.302;2023-04-20T07:51:33;99240;;;8.89;100
44127;BME280;29786;50.798;7.302;2023-04-20T07:56:29;99240;;;8.66;100
44127;BME280;29786;50.798;7.302;2023-04-20T08:01:26;99240;;;8.97;100
44127;BME280;29786;50.798;7.302;2023-04-20T08:07:37;99230;;;8.91;100
44127;BME280;29786;50.798;7.302;2023-04-20T08:12:33;99230;;;9.17;100
44127;BME280;29786;50.798;7.302;2023-04-20T08:17:29;99230;;;9.34;100
44127;BME280;29786;50.798;7.302;2023-04-20T08:22:26;99230;;;9.76;100
44127;BME280;29786;50.798;7.302;2023-04-20T08:28:37;99220;;;10.01;100
44127;BME280;29786;50.798;7.302;2023-04-20T08:33:33;99230;;;9.53;100
44127;BME280;29786;50.798;7.302;2023-04-20T08:38:30;99230;;;9.41;100
44127;BME280;29786;50.798;7.302;2023-04-20T08:49:37;99220;;;10;100
44127;BME280;29786;50.798;7.302;2023-04-20T08:54:33;99220;;;10.05;100
44127;BME280;29786;50.798;7.302;2023-04-20T08:59:30;99220;;;9.52;100
44127;BME280;29786;50.798;7.302;2023-04-20T09:04:26;99210;;;10.18;94.78
44127;BME280;29786;50.798;7.302;2023-04-20T09:10:38;99210;;;10.26;89.85
44127;BME280;29786;50.798;7.302;2023-04-20T09:15:34;99200;;;10.61;84.29
44127;BME280;29786;50.798;7.302;2023-04-20T09:20:31;99210;;;11.01;83.36
44127;BME280;29786;50.798;7.302;2023-04-20T09:25:30;99210;;;9.89;87.29
44127;BME280;29786;50.798;7.302;2023-04-20T09:31:37;99210;;;9.21;89.83
44127;BME280;29786;50.798;7.302;2023-04-20T09:36:38;99210;;;9.38;92.77
44127;BME280;29786;50.798;7.302;2023-04-20T09:41:30;99210;;;10.28;86.8
44127;BME280;29786;50.798;7.302;2023-04-20T09:46:27;99210;;;11.32;79.15
44127;BME280;29786;50.798;7.302;2023-04-20T09:52:37;99210;;;10.78;79.5
44127;BME280;29786;50.798;7.302;2023-04-20T09:57:34;99210;;;11.23;77.04
44127;BME280;29786;50.798;7.302;2023-04-20T10:02:31;99200;;;10.83;78.65
44127;BME280;29786;50.798;7.302;2023-04-20T10:07:28;99200;;;10.75;76.83
44127;BME280;29786;50.798;7.302;2023-04-20T10:13:38;99200;;;10.77;76.76
44127;BME280;29786;50.798;7.302;2023-04-20T10:18:34;99200;;;11.41;70.83
44127;BME280;29786;50.798;7.302;2023-04-20T10:23:31;99200;;;11.23;72.9
44127;BME280;29786;50.798;7.302;2023-04-20T10:28:43;99200;;;10.41;70.4
44127;BME280;29786;50.798;7.302;2023-04-20T10:34:38;99200;;;10.25;72.29
44127;BME280;29786;50.798;7.302;2023-04-20T10:39:35;99210;;;10.73;69.27
44127;BME280;29786;50.798;7.302;2023-04-20T10:44:31;99170;;;11.48;69.27
44127;BME280;29786;50.798;7.302;2023-04-20T10:49:28;99200;;;12.12;63.66
44127;BME280;29786;50.798;7.302;2023-04-20T10:55:38;99200;;;11.7;67.44
44127;BME280;29786;50.798;7.302;2023-04-20T11:00:35;99200;;;11.7;68.98
44127;BME280;29786;50.798;7.302;2023-04-20T11:05:31;99180;;;12.65;64.2
44127;BME280;29786;50.798;7.302;2023-04-20T11:10:36;99200;;;12.94;63.83
44127;BME280;29786;50.798;7.302;2023-04-20T11:15:32;99200;;;12.7;63.01
44127;BME280;29786;50.798;7.302;2023-04-20T11:21:36;99190;;;12.84;60.98
44127;BME280;29786;50.798;7.302;2023-04-20T11:26:33;99190;;;12.13;63.84
44127;BME280;29786;50.798;7.302;2023-04-20T11:31:28;99180;;;12.04;64.33
44127;BME280;29786;50.798;7.302;2023-04-20T11:36:25;99190;;;12.79;61.98
44127;BME280;29786;50.798;7.302;2023-04-20T11:42:35;99180;;;12.21;61.93
44127;BME280;29786;50.798;7.302;2023-04-20T11:46:26;99190;;;13.26;60.56
44127;BME280;29786;50.798;7.302;2023-04-20T11:52:37;99180;;;14.09;56.27
44127;BME280;29786;50.798;7.302;2023-04-20T11:57:33;99180;;;13.51;55.26
44127;BME280;29786;50.798;7.302;2023-04-20T12:02:30;99180;;;14.81;53.65
44127;BME280;29786;50.798;7.302;2023-04-20T12:07:26;99160;;;15.3;51.65
44127;BME280;29786;50.798;7.302;2023-04-20T12:13:37;99180;;;14.55;51.96
44127;BME280;29786;50.798;7.302;2023-04-20T12:18:33;99180;;;14.72;53.44
44127;BME280;29786;50.798;7.302;2023-04-20T12:23:30;99160;;;15.9;48.23
44127;BME280;29786;50.798;7.302;2023-04-20T12:28:27;99140;;;18.39;46.75
44127;BME280;29786;50.798;7.302;2023-04-20T12:34:37;99140;;;18.6;42.44
44127;BME280;29786;50.798;7.302;2023-04-20T12:39:34;99140;;;17.45;43.21
44127;BME280;29786;50.798;7.302;2023-04-20T12:44:30;99130;;;18.32;43.32
44127;BME280;29786;50.798;7.302;2023-04-20T12:49:27;99130;;;16.19;45.44
44127;BME280;29786;50.798;7.302;2023-04-20T12:55:37;99130;;;13.93;49.32
44127;BME280;29786;50.798;7.302;2023-04-20T13:00:34;99120;;;17.89;42.99
44127;BME280;29786;50.798;7.302;2023-04-20T13:05:30;99110;;;17.81;40.95
44127;BME280;29786;50.798;7.302;2023-04-20T13:07:59;99100;;;15.81;42.89
44127;BME280;29786;50.798;7.302;2023-04-20T13:10:27;99100;;;17.6;42.66
44127;BME280;29786;50.798;7.302;2023-04-20T13:16:38;99080;;;20.95;37.2
44127;BME280;29786;50.798;7.302;2023-04-20T13:21:34;99080;;;18.09;39.88
44127;BME280;29786;50.798;7.302;2023-04-20T13:26:31;99080;;;17.93;42.14
44127;BME280;29786;50.798;7.302;2023-04-20T13:31:28;99090;;;16.56;42.39
44127;BME280;29786;50.798;7.302;2023-04-20T13:37:38;99080;;;19.75;38.04
44127;BME280;29786;50.798;7.302;2023-04-20T13:42:34;99080;;;20.84;36.64
44127;BME280;29786;50.798;7.302;2023-04-20T13:47:31;99070;;;16.67;43.15
44127;BME280;29786;50.798;7.302;2023-04-20T13:52:28;99080;;;21.04;35.52
44127;BME280;29786;50.798;7.302;2023-04-20T13:58:38;99080;;;16.19;41.96
44127;BME280;29786;50.798;7.302;2023-04-20T14:03:35;99070;;;15.83;44.54
44127;BME280;29786;50.798;7.302;2023-04-20T14:08:31;99040;;;19.2;37.64
44127;BME280;29786;50.798;7.302;2023-04-20T14:13:28;99060;;;19.79;37.25
44127;BME280;29786;50.798;7.302;2023-04-20T14:19:39;99060;;;19.12;37.89
44127;BME280;29786;50.798;7.302;2023-04-20T14:20:53;99050;;;18.43;38.92
44127;BME280;29786;50.798;7.302;2023-04-20T14:24:35;99060;;;16.44;42.61
44127;BME280;29786;50.798;7.302;2023-04-20T14:29:31;99030;;;15.42;43.6
44127;BME280;29786;50.798;7.302;2023-04-20T14:34:28;99060;;;14.96;43.03
44127;BME280;29786;50.798;7.302;2023-04-20T14:39:25;99050;;;14.53;45.32
44127;BME280;29786;50.798;7.302;2023-04-20T14:45:35;99040;;;16.79;42.03
44127;BME280;29786;50.798;7.302;2023-04-20T14:55:28;99030;;;19.5;36.67
44127;BME280;29786;50.798;7.302;2023-04-20T15:00:25;99020;;;19.19;37.51
44127;BME280;29786;50.798;7.302;2023-04-20T15:06:36;99020;;;22.81;31.55
44127;BME280;29786;50.798;7.302;2023-04-20T15:11:32;99020;;;21.06;33.52
44127;BME280;29786;50.798;7.302;2023-04-20T15:16:29;99000;;;24.07;30.5
44127;BME280;29786;50.798;7.302;2023-04-20T15:27:36;98980;;;26.28;27.63
44127;BME280;29786;50.798;7.302;2023-04-20T15:32:32;98980;;;25.75;27.62
44127;BME280;29786;50.798;7.302;2023-04-20T15:37:29;98990;;;19.36;35.53
44127;BME280;29786;50.798;7.302;2023-04-20T15:42:25;99000;;;16.12;40.43
44127;BME280;29786;50.798;7.302;2023-04-20T15:48:36;98990;;;18.11;37.1
44127;BME280;29786;50.798;7.302;2023-04-20T15:53:33;99000;;;15.11;41.88
44127;BME280;29786;50.798;7.302;2023-04-20T15:58:29;99020;;;13.66;47.04
44127;BME280;29786;50.798;7.302;2023-04-20T16:03:26;99020;;;13.03;48.11
44127;BME280;29786;50.798;7.302;2023-04-20T16:09:36;99040;;;12.05;52.24
44127;BME280;29786;50.798;7.302;2023-04-20T16:14:33;99050;;;11.92;53.48
44127;BME280;29786;50.798;7.302;2023-04-20T16:19:30;99050;;;11.82;55.61
44127;BME280;29786;50.798;7.302;2023-04-20T16:24:26;99060;;;12.18;56.31
44127;BME280;29786;50.798;7.302;2023-04-20T16:30:37;99070;;;12.44;57.89
44127;BME280;29786;50.798;7.302;2023-04-20T16:35:33;99090;;;12.12;59.5
44127;BME280;29786;50.798;7.302;2023-04-20T16:40:30;99090;;;11.16;66.35
44127;BME280;29786;50.798;7.302;2023-04-20T16:45:27;99090;;;10.07;76.2
44127;BME280;29786;50.798;7.302;2023-04-20T16:51:37;99090;;;9.97;87.35
44127;BME280;29786;50.798;7.302;2023-04-20T16:56:34;99090;;;10.29;83.76
44127;BME280;29786;50.798;7.302;2023-04-20T17:01:30;99090;;;10.35;84.28
44127;BME280;29786;50.798;7.302;2023-04-20T17:06:27;99100;;;10.57;82.37
44127;BME280;29786;50.798;7.302;2023-04-20T17:12:37;99100;;;10.68;84.58
44127;BME280;29786;50.798;7.302;2023-04-20T17:17:34;99090;;;10.78;85.36
44127;BME280;29786;50.798;7.302;2023-04-20T17:22:30;99100;;;10.72;88.45
44127;BME280;29786;50.798;7.302;2023-04-20T17:27:27;99100;;;10.33;91.8
44127;BME280;29786;50.798;7.302;2023-04-20T17:33:38;99110;;;10.14;95.65
44127;BME280;29786;50.798;7.302;2023-04-20T17:38:34;99110;;;9.82;96.45
44127;BME280;29786;50.798;7.302;2023-04-20T17:43:36;99110;;;9.62;97.99
44127;BME280;29786;50.798;7.302;2023-04-20T17:48:27;99120;;;9.51;99.81
44127;BME280;29786;50.798;7.302;2023-04-20T17:54:38;99120;;;9.6;99
44127;BME280;29786;50.798;7.302;2023-04-20T17:59:34;99120;;;9.63;99.8
44127;BME280;29786;50.798;7.302;2023-04-20T18:04:31;99120;;;9.18;100
44127;BME280;29786;50.798;7.302;2023-04-20T18:09:28;99110;;;9.1;100
44127;BME280;29786;50.798;7.302;2023-04-20T18:15:38;99110;;;8.79;100
44127;BME280;29786;50.798;7.302;2023-04-20T18:20:35;99110;;;8.72;100
44127;BME280;29786;50.798;7.302;2023-04-20T18:25:31;99090;;;8.66;100
44127;BME280;29786;50.798;7.302;2023-04-20T18:30:28;99100;;;8.63;100
44127;BME280;29786;50.798;7.302;2023-04-20T18:35:24;99100;;;8.47;100
44127;BME280;29786;50.798;7.302;2023-04-20T18:41:35;99110;;;8.22;100
44127;BME280;29786;50.798;7.302;2023-04-20T18:46:31;99090;;;7.98;100
44127;BME280;29786;50.798;7.302;2023-04-20T18:51:28;99110;;;8.41;100
44127;BME280;29786;50.798;7.302;2023-04-20T18:56:25;99110;;;8.29;100
44127;BME280;29786;50.798;7.302;2023-04-20T19:02:35;99110;;;8.45;100
44127;BME280;29786;50.798;7.302;2023-04-20T19:07:32;99090;;;8.41;100
44127;BME280;29786;50.798;7.302;2023-04-20T19:12:28;99110;;;8.45;100
44127;BME280;29786;50.798;7.302;2023-04-20T19:17:25;99100;;;8.33;100
44127;BME280;29786;50.798;7.302;2023-04-20T19:23:35;99100;;;8.2;100
44127;BME280;29786;50.798;7.302;2023-04-20T19:28:32;99090;;;8.04;100
44127;BME280;29786;50.798;7.302;2023-04-20T19:33:28;99080;;;7.99;100
44127;BME280;29786;50.798;7.302;2023-04-20T19:38:25;99080;;;7.91;100
44127;BME280;29786;50.798;7.302;2023-04-20T19:44:36;99070;;;7.72;100
44127;BME280;29786;50.798;7.302;2023-04-20T19:49:32;99060;;;7.86;100
44127;BME280;29786;50.798;7.302;2023-04-20T19:54:29;99070;;;7.66;100
44127;BME280;29786;50.798;7.302;2023-04-20T20:00:39;99070;;;7.91;100
44127;BME280;29786;50.798;7.302;2023-04-20T20:05:36;99080;;;8.05;100
44127;BME280;29786;50.798;7.302;2023-04-20T20:10:32;99090;;;7.97;100
44127;BME280;29786;50.798;7.302;2023-04-20T20:15:29;99100;;;7.87;100
44127;BME280;29786;50.798;7.302;2023-04-20T20:20:26;99100;;;7.87;100
44127;BME280;29786;50.798;7.302;2023-04-20T20:26:36;99120;;;7.54;100
44127;BME280;29786;50.798;7.302;2023-04-20T20:31:33;99120;;;7.54;100
44127;BME280;29786;50.798;7.302;2023-04-20T20:36:29;99100;;;7.38;100
44127;BME280;29786;50.798;7.302;2023-04-20T20:41:26;99120;;;7.43;100
44127;BME280;29786;50.798;7.302;2023-04-20T20:47:38;99100;;;7.41;100
44127;BME280;29786;50.798;7.302;2023-04-20T20:52:33;99100;;;7.19;100
44127;BME280;29786;50.798;7.302;2023-04-20T20:57:30;99090;;;7.37;100
44127;BME280;29786;50.798;7.302;2023-04-20T21:02:26;99080;;;7.25;100
44127;BME280;29786;50.798;7.302;2023-04-20T21:08:37;99090;;;7.36;100
44127;BME280;29786;50.798;7.302;2023-04-20T21:13:33;99090;;;7.31;100
44127;BME280;29786;50.798;7.302;2023-04-20T21:18:30;99090;;;7.54;100
44127;BME280;29786;50.798;7.302;2023-04-20T21:23:26;99090;;;7.59;100
44127;BME280;29786;50.798;7.302;2023-04-20T21:29:37;99080;;;7.42;100
44127;BME280;29786;50.798;7.302;2023-04-20T21:34:33;99080;;;7.35;100
44127;BME280;29786;50.798;7.302;2023-04-20T21:39:30;99070;;;7.29;100
44127;BME280;29786;50.798;7.302;2023-04-20T21:44:26;99070;;;7.04;100
44127;BME280;29786;50.798;7.302;2023-04-20T21:50:37;99060;;;7.15;100
44127;BME280;29786;50.798;7.302;2023-04-20T21:55:34;99060;;;7.25;100
44127;BME280;29786;50.798;7.302;2023-04-20T22:00:30;99040;;;7.16;100
44127;BME280;29786;50.798;7.302;2023-04-20T22:05:27;99040;;;7.08;100
44127;BME280;29786;50.798;7.302;2023-04-20T22:11:37;99040;;;7.03;100
44127;BME280;29786;50.798;7.302;2023-04-20T22:16:34;99040;;;6.95;100
44127;BME280;29786;50.798;7.302;2023-04-20T22:21:30;99050;;;6.91;100
44127;BME280;29786;50.798;7.302;2023-04-20T22:26:27;99040;;;6.98;100
44127;BME280;29786;50.798;7.302;2023-04-20T22:32:38;99050;;;7.39;100
44127;BME280;29786;50.798;7.302;2023-04-20T22:37:34;99040;;;7.37;100
44127;BME280;29786;50.798;7.302;2023-04-20T22:42:31;99040;;;7.41;100
44127;BME280;29786;50.798;7.302;2023-04-20T22:47:27;99030;;;7.22;100
44127;BME280;29786;50.798;7.302;2023-04-20T22:53:38;99010;;;7.23;100
44127;BME280;29786;50.798;7.302;2023-04-20T22:58:34;99020;;;7.24;100
44127;BME280;29786;50.798;7.302;2023-04-20T23:03:31;99010;;;7.13;100
44127;BME280;29786;50.798;7.302;2023-04-20T23:08:28;98990;;;7.16;100
44127;BME280;29786;50.798;7.302;2023-04-20T23:14:38;98990;;;7.32;100
44127;BME280;29786;50.798;7.302;2023-04-20T23:19:35;98990;;;7.27;100
44127;BME280;29786;50.798;7.302;2023-04-20T23:24:31;98960;;;7.08;100
44127;BME280;29786;50.798;7.302;2023-04-20T23:29:28;99000;;;7.12;100
44127;BME280;29786;50.798;7.302;2023-04-20T23:35:39;98990;;;7;100
44127;BME280;29786;50.798;7.302;2023-04-20T23:40:35;98990;;;7.07;100
44127;BME280;29786;50.798;7.302;2023-04-20T23:45:31;98970;;;7.02;100
44127;BME280;29786;50.798;7.302;2023-04-20T23:50:28;98970;;;7.08;100
44127;BME280;29786;50.798;7.302;2023-04-20T23:55:25;98960;;;6.98;100
